Time;durP1;ratioP1;P1;durP2;ratioP2;P2;SDS_P1;SDS_P2;PMS_P1;PMS_P2;Temp;Humidity;BMP_temperature;BMP_pressure;BME280_temperature;BME280_humidity;BME280_pressure;Samples;Min_cycle;Max_cycle;Signal;HPM_P1;HPM_P2
2024/01/17 00:01:27;;;;;;;28.83;16.25;;;;;;;0.13;100.00;98482.44;5037437;28;20052;-75
2024/01/17 00:03:52;;;;;;;30.45;16.95;;;;;;;0.13;100.00;98467.97;5036966;28;20033;-75
2024/01/17 00:06:18;;;;;;;30.50;16.15;;;;;;;0.12;100.00;98458.97;5038025;28;20033;-75
2024/01/17 00:08:44;;;;;;;29.67;15.82;;;;;;;0.11;100.00;98451.88;5020579;28;20025;-75
2024/01/17 00:11:10;;;;;;;30.65;16.10;;;;;;;0.13;100.00;98438.75;5020373;28;20029;-75
2024/01/17 00:13:35;;;;;;;28.05;15.80;;;;;;;0.11;100.00;98427.31;5036886;28;20478;-75
2024/01/17 00:16:01;;;;;;;29.35;16.75;;;;;;;0.10;100.00;98427.56;5020004;28;20086;-75
2024/01/17 00:18:26;;;;;;;28.38;16.20;;;;;;;0.13;100.00;98424.28;5036701;28;20037;-75
2024/01/17 00:20:51;;;;;;;26.67;14.65;;;;;;;0.14;100.00;98418.56;5018961;28;20038;-75
2024/01/17 00:23:17;;;;;;;27.27;14.98;;;;;;;0.13;100.00;98421.56;5037739;28;20050;-75
2024/01/17 00:25:42;;;;;;;25.70;13.93;;;;;;;0.15;100.00;98414.72;5018903;28;20409;-75
2024/01/17 00:28:08;;;;;;;21.98;14.00;;;;;;;0.14;100.00;98407.66;5036582;28;20044;-75
2024/01/17 00:30:33;;;;;;;25.70;14.13;;;;;;;0.14;100.00;98395.88;5037513;28;20033;-75
2024/01/17 00:32:59;;;;;;;22.85;12.82;;;;;;;0.13;100.00;98381.44;5036578;28;20025;-75
2024/01/17 00:35:25;;;;;;;21.17;14.05;;;;;;;0.15;100.00;98371.06;5036338;28;20036;-75
2024/01/17 00:37:51;;;;;;;23.05;13.57;;;;;;;0.16;100.00;98361.75;5037510;28;20036;-75
2024/01/17 00:40:16;;;;;;;23.80;13.30;;;;;;;0.16;100.00;98356.28;5018498;28;20215;-75
2024/01/17 00:42:42;;;;;;;20.50;12.48;;;;;;;0.17;100.00;98348.94;5040609;28;20029;-75
2024/01/17 00:45:08;;;;;;;23.85;13.23;;;;;;;0.19;100.00;98341.28;5041655;28;20037;-75
2024/01/17 00:47:35;;;;;;;24.65;13.48;;;;;;;0.19;100.00;98338.53;5037522;28;20052;-74
2024/01/17 00:50:01;;;;;;;20.95;13.10;;;;;;;0.19;100.00;98333.91;5036078;28;20045;-75
2024/01/17 00:52:27;;;;;;;21.13;12.45;;;;;;;0.20;100.00;98316.44;5025421;28;20060;-75
2024/01/17 00:54:52;;;;;;;24.25;13.18;;;;;;;0.19;100.00;98306.59;5035915;28;20033;-75
2024/01/17 00:57:18;;;;;;;21.90;12.82;;;;;;;0.20;100.00;98296.53;5036963;28;20095;-75
2024/01/17 00:59:43;;;;;;;24.35;13.93;;;;;;;0.21;100.00;98289.97;5036640;28;20022;-75
2024/01/17 01:02:09;;;;;;;20.20;12.77;;;;;;;0.22;100.00;98278.78;5019528;28;20469;-75
2024/01/17 01:04:34;;;;;;;25.75;14.77;;;;;;;0.22;100.00;98281.50;5035805;28;20029;-75
2024/01/17 01:07:00;;;;;;;24.73;13.75;;;;;;;0.24;100.00;98281.19;5052410;28;20029;-75
2024/01/17 01:09:25;;;;;;;22.45;13.68;;;;;;;0.24;100.00;98273.00;5036850;28;20030;-75
2024/01/17 01:11:51;;;;;;;27.67;15.45;;;;;;;0.26;100.00;98259.09;5036265;28;20021;-75
2024/01/17 01:14:16;;;;;;;23.73;14.02;;;;;;;0.29;100.00;98250.34;5037155;28;20041;-75
2024/01/17 01:16:42;;;;;;;21.92;13.50;;;;;;;0.29;100.00;98233.94;5068857;28;20078;-75
2024/01/17 01:19:07;;;;;;;21.40;12.88;;;;;;;0.29;100.00;98236.69;5035713;28;20033;-75
2024/01/17 01:21:33;;;;;;;22.20;13.23;;;;;;;0.31;100.00;98226.31;5035384;28;20053;-75
2024/01/17 01:23:58;;;;;;;23.23;13.68;;;;;;;0.31;100.00;98229.84;5036754;28;20026;-75
2024/01/17 01:26:24;;;;;;;24.50;14.10;;;;;;;0.31;100.00;98227.13;5035464;28;20025;-75
2024/01/17 01:28:49;;;;;;;24.73;14.13;;;;;;;0.28;100.00;98222.22;5019027;28;20040;-75
2024/01/17 01:31:15;;;;;;;22.67;13.70;;;;;;;0.31;100.00;98209.94;5036510;28;20095;-75
2024/01/17 01:33:40;;;;;;;22.63;12.98;;;;;;;0.33;100.00;98202.25;5036480;28;20040;-75
2024/01/17 01:36:06;;;;;;;23.80;12.55;;;;;;;0.33;100.00;98181.22;5049617;28;20141;-75
2024/01/17 01:38:32;;;;;;;23.08;13.93;;;;;;;0.34;100.00;98165.66;5031329;28;20061;-75
2024/01/17 01:40:58;;;;;;;21.38;13.32;;;;;;;0.36;100.00;98164.28;5030710;28;20389;-75
2024/01/17 01:43:24;;;;;;;22.75;13.85;;;;;;;0.38;100.00;98161.25;5034055;28;20025;-75
2024/01/17 01:46:15;;;;;;;24.20;13.93;;;;;;;0.38;100.00;98150.31;5030209;28;20108;-75
2024/01/17 01:48:41;;;;;;;21.75;13.15;;;;;;;0.38;100.00;98140.22;5031734;28;20034;-75
2024/01/17 01:51:06;;;;;;;21.73;14.35;;;;;;;0.39;100.00;98130.94;5032525;28;20034;-75
2024/01/17 01:53:32;;;;;;;20.80;12.98;;;;;;;0.41;100.00;98127.91;5033063;28;20032;-75
2024/01/17 01:55:58;;;;;;;19.52;12.32;;;;;;;0.40;100.00;98118.91;5013992;28;20033;-75
2024/01/17 01:58:23;;;;;;;18.70;11.93;;;;;;;0.43;100.00;98123.00;5062763;28;20423;-75
2024/01/17 02:00:49;;;;;;;19.80;12.63;;;;;;;0.43;100.00;98120.25;5030967;28;20406;-75
2024/01/17 02:03:15;;;;;;;18.27;12.40;;;;;;;0.44;100.00;98110.94;5013712;28;20034;-75
2024/01/17 02:05:41;;;;;;;17.30;11.05;;;;;;;0.44;100.00;98094.56;5030414;28;20065;-75
2024/01/17 02:08:06;;;;;;;19.38;12.55;;;;;;;0.43;100.00;98092.94;5030128;28;20553;-75
2024/01/17 02:10:32;;;;;;;19.60;12.30;;;;;;;0.46;100.00;98097.84;5013499;28;20644;-75
2024/01/17 02:12:58;;;;;;;19.20;12.25;;;;;;;0.50;100.00;98087.13;5029375;28;20041;-75
2024/01/17 02:15:24;;;;;;;20.48;11.75;;;;;;;0.51;100.00;98080.59;5030833;28;20044;-75
2024/01/17 02:17:50;;;;;;;16.58;11.23;;;;;;;0.50;100.00;98060.63;5032219;28;20048;-75
2024/01/17 02:20:15;;;;;;;15.57;10.93;;;;;;;0.52;100.00;98047.53;4998562;28;20084;-75
2024/01/17 02:22:41;;;;;;;17.67;11.55;;;;;;;0.53;100.00;98046.44;5013868;28;20045;-75
2024/01/17 02:25:07;;;;;;;17.13;11.20;;;;;;;0.56;100.00;98028.66;5030907;28;20029;-75
2024/01/17 02:27:32;;;;;;;15.10;10.07;;;;;;;0.57;100.00;98022.88;5015100;28;20033;-75
2024/01/17 02:29:57;;;;;;;15.50;10.50;;;;;;;0.56;100.00;98015.00;5030413;28;20064;-75
2024/01/17 02:32:23;;;;;;;17.83;10.38;;;;;;;0.59;100.00;98007.03;5030647;28;20037;-75
2024/01/17 02:34:49;;;;;;;16.00;10.85;;;;;;;0.63;100.00;98015.47;5015327;28;20474;-75
2024/01/17 02:37:15;;;;;;;15.07;9.93;;;;;;;0.64;100.00;98003.41;5030762;28;20034;-75
2024/01/17 02:39:40;;;;;;;15.57;10.77;;;;;;;0.65;100.00;97989.47;5016718;28;20034;-75
2024/01/17 02:42:05;;;;;;;15.15;9.80;;;;;;;0.63;100.00;97991.69;5033114;28;20104;-75
2024/01/17 02:44:31;;;;;;;13.52;9.77;;;;;;;0.70;100.00;97972.22;5034083;28;20045;-75
2024/01/17 02:46:57;;;;;;;17.65;10.95;;;;;;;0.70;100.00;97983.16;5030932;28;20030;-75
2024/01/17 02:49:22;;;;;;;16.55;10.07;;;;;;;0.70;100.00;97976.84;5030766;28;20682;-75
2024/01/17 02:51:48;;;;;;;17.15;10.45;;;;;;;0.71;100.00;97971.13;5031505;28;20033;-75
2024/01/17 02:54:13;;;;;;;14.57;8.93;;;;;;;0.72;100.00;97961.00;5028717;28;20029;-75
2024/01/17 02:56:39;;;;;;;14.30;9.88;;;;;;;0.73;100.00;97944.31;5030894;28;20026;-75
2024/01/17 02:59:06;;;;;;;13.95;8.95;;;;;;;0.73;100.00;97935.31;5014392;28;20021;-75
2024/01/17 03:01:31;;;;;;;15.57;9.70;;;;;;;0.75;100.00;97924.88;5031681;28;20517;-75
2024/01/17 03:03:57;;;;;;;12.65;9.00;;;;;;;0.75;100.00;97909.31;5031051;28;20033;-75
2024/01/17 03:06:22;;;;;;;14.98;9.27;;;;;;;0.77;100.00;97904.38;5030355;28;20419;-75
2024/01/17 03:08:48;;;;;;;12.60;9.02;;;;;;;0.81;100.00;97888.22;5029917;28;20025;-75
2024/01/17 03:11:13;;;;;;;12.40;8.60;;;;;;;0.82;100.00;97867.97;5031197;28;20040;-75
2024/01/17 03:13:39;;;;;;;12.88;8.85;;;;;;;0.83;100.00;97873.13;5029727;28;20370;-75
2024/01/17 03:16:05;;;;;;;14.52;8.60;;;;;;;0.88;100.00;97869.53;5030643;28;20026;-75
2024/01/17 03:18:30;;;;;;;11.43;8.15;;;;;;;0.90;100.00;97867.31;5030835;28;20056;-75
2024/01/17 03:20:56;;;;;;;11.52;7.97;;;;;;;0.91;100.00;97868.94;5033050;28;20445;-75
2024/01/17 03:23:21;;;;;;;10.68;7.57;;;;;;;0.92;100.00;97870.56;5032934;28;20042;-75
2024/01/17 03:25:47;;;;;;;12.13;7.20;;;;;;;0.96;100.00;97860.66;5031692;28;20042;-75
2024/01/17 03:28:13;;;;;;;12.13;7.07;;;;;;;0.94;100.00;97854.66;5026962;28;20147;-75
2024/01/17 03:30:38;;;;;;;11.13;6.55;;;;;;;0.96;100.00;97855.19;5029475;28;20060;-75
2024/01/17 03:33:04;;;;;;;8.95;6.50;;;;;;;0.98;100.00;97842.06;5013193;28;20033;-75
2024/01/17 03:35:30;;;;;;;9.93;6.93;;;;;;;0.99;100.00;97821.00;5032823;28;20040;-75
2024/01/17 03:37:55;;;;;;;8.95;6.32;;;;;;;1.00;100.00;97822.59;5033105;28;20034;-75
2024/01/17 03:40:20;;;;;;;8.77;6.03;;;;;;;1.01;100.00;97803.19;5016854;28;20037;-75
2024/01/17 03:42:46;;;;;;;8.80;6.43;;;;;;;1.04;100.00;97808.06;5035081;28;20029;-75
2024/01/17 03:45:12;;;;;;;10.10;7.35;;;;;;;1.07;100.00;97791.06;4998504;28;20034;-75
2024/01/17 03:47:38;;;;;;;10.07;6.88;;;;;;;1.07;100.00;97795.72;5033270;28;20033;-75
2024/01/17 03:50:04;;;;;;;10.15;7.45;;;;;;;1.09;100.00;97785.31;5038216;28;20029;-75
2024/01/17 03:52:29;;;;;;;9.57;7.40;;;;;;;1.10;100.00;97779.53;5043780;28;20417;-75
2024/01/17 03:54:55;;;;;;;9.00;6.55;;;;;;;1.11;100.00;97774.88;5038262;28;20048;-75
2024/01/17 03:57:20;;;;;;;10.68;7.03;;;;;;;1.16;100.00;97760.31;5038106;28;20080;-75
2024/01/17 03:59:46;;;;;;;10.00;7.38;;;;;;;1.17;100.00;97757.28;5037840;28;20067;-75
2024/01/17 04:02:11;;;;;;;9.63;7.15;;;;;;;1.22;100.00;97742.69;5038073;28;20025;-75
2024/01/17 04:04:40;;;;;;;11.32;8.20;;;;;;;1.25;100.00;97731.97;5038159;28;20038;-75
2024/01/17 04:07:05;;;;;;;11.30;7.25;;;;;;;1.25;100.00;97728.44;5070172;28;20478;-75
2024/01/17 04:09:30;;;;;;;11.35;7.40;;;;;;;1.28;100.00;97711.41;5036760;28;20025;-75
2024/01/17 04:11:56;;;;;;;11.95;8.07;;;;;;;1.28;100.00;97705.94;5036611;28;20037;-75
2024/01/17 04:14:21;;;;;;;12.02;8.13;;;;;;;1.27;100.00;97696.94;5037880;28;20025;-75
2024/01/17 04:16:47;;;;;;;10.32;7.50;;;;;;;1.26;100.00;97683.59;5037807;28;20038;-75
2024/01/17 04:19:13;;;;;;;13.20;8.32;;;;;;;1.29;100.00;97674.78;5036773;28;20088;-75
2024/01/17 04:21:38;;;;;;;9.93;7.18;;;;;;;1.29;100.00;97678.31;5019937;28;20088;-75
2024/01/17 04:24:04;;;;;;;9.10;6.68;;;;;;;1.29;100.00;97666.56;5036563;28;20029;-75
2024/01/17 04:26:29;;;;;;;9.82;6.60;;;;;;;1.30;100.00;97658.06;5037574;28;20032;-75
2024/01/17 04:28:55;;;;;;;9.32;6.57;;;;;;;1.33;100.00;97645.69;5019745;28;20030;-75
2024/01/17 04:31:30;;;;;;;7.30;5.82;;;;;;;1.34;100.00;97650.06;5036518;28;20036;-75
2024/01/17 04:33:56;;;;;;;7.88;5.75;;;;;;;1.34;100.00;97652.81;5037656;28;20033;-75
2024/01/17 04:36:22;;;;;;;7.00;5.07;;;;;;;1.32;100.00;97638.63;5016751;28;20030;-75
2024/01/17 04:38:48;;;;;;;8.18;5.60;;;;;;;1.35;100.00;97643.50;5032495;28;20033;-74
2024/01/17 04:41:15;;;;;;;6.50;5.38;;;;;;;1.40;100.00;97648.06;5036248;28;20536;-75
2024/01/17 04:43:41;;;;;;;6.45;5.00;;;;;;;1.40;100.00;97640.66;5044775;28;20026;-75
2024/01/17 04:46:13;;;;;;;7.25;5.28;;;;;;;1.40;100.00;97628.91;5035483;28;20034;-75
2024/01/17 04:48:39;;;;;;;4.78;3.83;;;;;;;1.39;100.00;97605.41;5036121;28;20060;-75
2024/01/17 04:51:05;;;;;;;6.15;4.80;;;;;;;1.41;100.00;97614.13;5043163;28;20529;-75
2024/01/17 04:53:32;;;;;;;7.25;5.32;;;;;;;1.42;100.00;97602.03;5036589;28;20156;-75
2024/01/17 04:56:01;;;;;;;7.22;5.10;;;;;;;1.45;100.00;97599.53;5036885;28;20036;-75
2024/01/17 04:58:27;;;;;;;6.43;5.20;;;;;;;1.45;100.00;97580.38;5037150;28;20030;-75
2024/01/17 05:00:53;;;;;;;6.25;4.78;;;;;;;1.45;100.00;97574.91;5035632;28;20044;-75
2024/01/17 05:03:18;;;;;;;8.30;4.82;;;;;;;1.44;100.00;97562.34;5052518;28;20025;-75
2024/01/17 05:05:43;;;;;;;8.38;6.05;;;;;;;1.46;100.00;97551.91;5037252;28;20030;-75
2024/01/17 05:08:12;;;;;;;8.43;5.82;;;;;;;1.49;100.00;97556.75;5035684;28;20433;-75
2024/01/17 05:10:42;;;;;;;7.05;5.50;;;;;;;1.49;100.00;97547.75;5036819;28;20037;-75
2024/01/17 05:13:08;;;;;;;6.80;5.43;;;;;;;1.49;100.00;97545.03;5036862;28;20549;-75
2024/01/17 05:15:33;;;;;;;6.72;5.25;;;;;;;1.49;100.00;97523.94;5037147;28;20037;-75
2024/01/17 05:17:58;;;;;;;7.85;5.97;;;;;;;1.51;100.00;97527.19;5036875;28;20037;-75
2024/01/17 05:20:24;;;;;;;8.45;5.97;;;;;;;1.52;100.00;97506.91;5035930;28;20036;-75
2024/01/17 05:22:49;;;;;;;7.03;5.35;;;;;;;1.52;100.00;97501.44;5036605;28;20049;-75
2024/01/17 05:25:15;;;;;;;7.70;6.43;;;;;;;1.54;100.00;97491.00;5036521;28;20030;-75
2024/01/17 05:27:40;;;;;;;8.32;5.90;;;;;;;1.54;100.00;97482.81;5035323;28;20104;-75
2024/01/17 05:30:09;;;;;;;9.07;6.30;;;;;;;1.55;100.00;97478.13;5036661;28;20040;-75
2024/01/17 05:32:37;;;;;;;8.77;6.35;;;;;;;1.57;100.00;97475.91;5035386;28;20393;-75
2024/01/17 05:35:04;;;;;;;7.68;5.93;;;;;;;1.57;100.00;97478.66;5036724;28;20060;-75
2024/01/17 05:37:29;;;;;;;8.20;6.13;;;;;;;1.58;100.00;97472.06;5035163;28;20033;-75
2024/01/17 05:39:55;;;;;;;6.63;5.68;;;;;;;1.59;100.00;97467.38;5015668;28;20510;-75
2024/01/17 05:42:20;;;;;;;7.80;5.70;;;;;;;1.61;100.00;97476.91;5036169;28;20051;-75
2024/01/17 05:44:46;;;;;;;6.43;5.07;;;;;;;1.62;100.00;97461.31;5043642;28;20033;-75
2024/01/17 05:47:11;;;;;;;7.13;5.50;;;;;;;1.62;100.00;97461.31;5036370;28;20394;-75
2024/01/17 05:49:37;;;;;;;8.65;5.43;;;;;;;1.64;100.00;97459.06;5034806;28;20037;-75
2024/01/17 05:52:03;;;;;;;6.35;5.30;;;;;;;1.65;100.00;97438.81;5040738;28;20042;-75
2024/01/17 05:54:28;;;;;;;5.53;4.45;;;;;;;1.65;100.00;97444.28;5034015;28;20036;-75
2024/01/17 05:56:54;;;;;;;6.65;5.10;;;;;;;1.67;100.00;97436.56;5032912;28;20038;-75
2024/01/17 05:59:19;;;;;;;5.47;4.32;;;;;;;1.68;100.00;97432.72;5033414;28;20038;-75
2024/01/17 06:01:45;;;;;;;4.68;3.90;;;;;;;1.68;100.00;97421.78;5030138;28;20029;-75
2024/01/17 06:04:10;;;;;;;5.45;4.00;;;;;;;1.66;100.00;97411.13;5031759;28;20040;-75
2024/01/17 06:06:36;;;;;;;6.13;4.40;;;;;;;1.69;100.00;97406.97;5047895;28;20462;-75
2024/01/17 06:09:01;;;;;;;4.40;3.95;;;;;;;1.68;100.00;97395.22;5030094;28;20121;-75
2024/01/17 06:11:27;;;;;;;6.63;4.95;;;;;;;1.74;100.00;97387.69;5030800;28;20040;-75
2024/01/17 06:13:53;;;;;;;5.15;4.53;;;;;;;1.75;100.00;97387.34;5030540;28;20025;-75
2024/01/17 06:16:18;;;;;;;5.57;3.75;;;;;;;1.78;100.00;97369.50;5031791;28;20057;-75
2024/01/17 06:18:44;;;;;;;6.00;4.38;;;;;;;1.83;100.00;97363.09;5030516;28;20452;-75
2024/01/17 06:21:09;;;;;;;5.95;4.00;;;;;;;1.83;100.00;97355.69;5032137;28;20037;-75
2024/01/17 06:23:35;;;;;;;5.25;4.15;;;;;;;1.84;100.00;97349.13;5013724;28;20099;-75
2024/01/17 06:26:00;;;;;;;5.15;4.28;;;;;;;1.87;100.00;97344.97;5030077;28;20482;-75
2024/01/17 06:28:26;;;;;;;4.13;3.38;;;;;;;1.89;100.00;97335.28;5029733;28;20045;-75
2024/01/17 06:30:51;;;;;;;4.60;3.60;;;;;;;1.93;100.00;97327.28;5030803;28;22538;-75
2024/01/17 06:33:18;;;;;;;3.38;2.83;;;;;;;1.95;100.00;97334.03;5029192;28;20063;-75
2024/01/17 06:35:49;;;;;;;4.68;3.58;;;;;;;1.98;100.00;97311.53;5030803;28;20433;-75
2024/01/17 06:38:15;;;;;;;4.13;2.72;;;;;;;1.99;100.00;97310.38;5029720;28;20033;-75
2024/01/17 06:40:40;;;;;;;4.70;3.35;;;;;;;2.05;100.00;97304.78;5029208;28;20383;-75
2024/01/17 06:43:06;;;;;;;3.85;3.00;;;;;;;2.08;100.00;97309.59;5032966;28;20033;-75
2024/01/17 06:45:31;;;;;;;3.53;2.90;;;;;;;2.13;100.00;97296.59;5029849;28;20046;-75
2024/01/17 06:47:58;;;;;;;4.20;3.20;;;;;;;2.20;100.00;97296.09;5029934;28;20042;-75
2024/01/17 06:50:24;;;;;;;3.75;2.95;;;;;;;2.24;100.00;97295.16;5035345;28;20025;-75
2024/01/17 06:52:50;;;;;;;4.45;3.22;;;;;;;2.27;100.00;97274.56;5040259;28;20072;-75
2024/01/17 06:55:15;;;;;;;3.33;2.78;;;;;;;2.32;100.00;97290.03;5035142;28;20512;-75
2024/01/17 06:57:41;;;;;;;3.85;3.13;;;;;;;2.39;100.00;97293.09;5035452;28;20030;-75
2024/01/17 07:00:07;;;;;;;3.40;2.90;;;;;;;2.41;100.00;97286.19;5034664;28;20486;-75
2024/01/17 07:02:33;;;;;;;2.95;2.50;;;;;;;2.44;100.00;97279.25;5035638;28;20037;-75
2024/01/17 07:04:58;;;;;;;3.33;2.70;;;;;;;2.49;100.00;97265.41;5034191;28;20112;-75
2024/01/17 07:07:24;;;;;;;3.65;2.80;;;;;;;2.52;100.00;97264.78;5035411;28;20052;-75
2024/01/17 07:09:49;;;;;;;4.07;2.55;;;;;;;2.56;100.00;97262.19;5037452;28;20037;-75
2024/01/17 07:12:14;;;;;;;3.33;2.50;;;;;;;2.60;100.00;97252.22;5038826;28;20029;-75
2024/01/17 07:14:40;;;;;;;2.92;2.50;;;;;;;2.64;100.00;97244.97;5038875;28;20032;-75
2024/01/17 07:17:06;;;;;;;3.65;2.85;;;;;;;2.69;100.00;97237.38;5039094;28;20041;-75
2024/01/17 07:19:36;;;;;;;3.15;2.35;;;;;;;2.75;100.00;97243.50;5039157;28;20044;-75
2024/01/17 07:22:02;;;;;;;2.83;2.45;;;;;;;2.76;100.00;97234.19;5037611;28;20057;-75
2024/01/17 07:24:27;;;;;;;2.97;2.63;;;;;;;2.81;100.00;97239.47;5021126;28;20040;-75
2024/01/17 07:26:52;;;;;;;3.10;2.45;;;;;;;2.87;100.00;97232.72;5038663;28;20056;-75
2024/01/17 07:29:18;;;;;;;2.38;2.08;;;;;;;2.90;100.00;97225.78;5038715;28;20025;-75
2024/01/17 07:31:43;;;;;;;2.35;2.15;;;;;;;2.94;100.00;97232.22;5039064;28;20037;-75
2024/01/17 07:34:09;;;;;;;2.88;2.40;;;;;;;2.96;100.00;97229.16;5038571;28;20035;-75
2024/01/17 07:36:34;;;;;;;3.90;1.90;;;;;;;3.00;100.00;97211.72;5047942;28;20087;-75
2024/01/17 07:39:00;;;;;;;2.83;2.10;;;;;;;3.06;100.00;97217.84;5040014;28;20037;-75
2024/01/17 07:41:25;;;;;;;2.63;2.20;;;;;;;3.12;100.00;97216.53;5038479;28;20037;-75
2024/01/17 07:43:51;;;;;;;2.92;2.05;;;;;;;3.14;100.00;97219.75;5045952;28;20025;-75
2024/01/17 07:46:16;;;;;;;2.45;2.20;;;;;;;3.17;100.00;97216.38;5038680;28;20025;-75
2024/01/17 07:48:42;;;;;;;3.03;2.08;;;;;;;3.23;100.00;97212.34;5038368;28;20611;-75
2024/01/17 07:51:08;;;;;;;2.05;1.85;;;;;;;3.27;100.00;97216.03;5044786;28;20036;-75
2024/01/17 07:53:33;;;;;;;2.60;2.20;;;;;;;3.30;100.00;97212.63;5037523;28;20029;-75
2024/01/17 07:56:00;;;;;;;2.55;2.00;;;;;;;3.33;100.00;97209.22;5038165;28;20530;-75
2024/01/17 07:58:25;;;;;;;3.38;2.00;;;;;;;3.36;100.00;97205.03;5020818;28;20108;-75
2024/01/17 08:00:51;;;;;;;2.58;1.90;;;;;;;3.41;100.00;97209.56;5038027;28;20045;-75
2024/01/17 08:03:16;;;;;;;2.78;2.17;;;;;;;3.46;100.00;97209.38;5035248;28;20544;-75
2024/01/17 08:05:42;;;;;;;2.70;1.80;;;;;;;3.50;100.00;97218.53;5037052;28;20022;-75
2024/01/17 08:08:09;;;;;;;2.92;2.03;;;;;;;3.55;100.00;97224.66;5036147;28;20033;-75
2024/01/17 08:10:34;;;;;;;2.40;2.17;;;;;;;3.59;100.00;97224.81;5038086;28;20040;-75
2024/01/17 08:13:00;;;;;;;2.50;2.15;;;;;;;3.65;100.00;97222.69;5038094;28;20037;-75
2024/01/17 08:15:26;;;;;;;2.33;1.85;;;;;;;3.70;100.00;97225.25;5038167;28;20033;-75
2024/01/17 08:17:51;;;;;;;2.13;1.92;;;;;;;3.75;100.00;97217.63;5037950;28;20029;-75
2024/01/17 08:20:17;;;;;;;2.55;2.00;;;;;;;3.81;100.00;97221.00;5036903;28;20059;-75
2024/01/17 08:22:43;;;;;;;2.90;2.30;;;;;;;3.86;100.00;97222.78;5035940;28;20498;-75
2024/01/17 08:25:09;;;;;;;2.88;2.10;;;;;;;3.90;100.00;97221.78;5036096;28;20037;-75
2024/01/17 08:27:34;;;;;;;2.72;2.15;;;;;;;3.95;100.00;97218.03;5037830;28;20057;-75
2024/01/17 08:30:00;;;;;;;2.42;2.13;;;;;;;3.98;100.00;97220.94;5037702;28;20029;-75
2024/01/17 08:32:25;;;;;;;3.53;2.35;;;;;;;4.01;100.00;97216.69;5037814;28;20034;-75
2024/01/17 08:34:51;;;;;;;3.20;2.50;;;;;;;4.08;100.00;97222.50;5037708;28;20040;-75
2024/01/17 08:37:16;;;;;;;2.92;2.53;;;;;;;4.12;100.00;97217.13;5035841;28;20029;-75
2024/01/17 08:39:43;;;;;;;5.00;3.00;;;;;;;4.16;100.00;97223.59;5036361;28;20033;-75
2024/01/17 08:42:12;;;;;;;4.07;2.90;;;;;;;4.20;100.00;97217.06;5037059;28;20051;-76
2024/01/17 08:44:40;;;;;;;4.95;3.05;;;;;;;4.23;100.00;97216.44;5044633;28;20401;-76
2024/01/17 08:47:07;;;;;;;3.78;2.53;;;;;;;4.28;100.00;97229.16;5037047;28;20087;-76
2024/01/17 08:49:33;;;;;;;4.55;3.20;;;;;;;4.32;100.00;97221.88;5036278;28;20039;-76
2024/01/17 08:51:59;;;;;;;7.13;5.00;;;;;;;4.36;100.00;97230.25;5043303;28;20045;-76
2024/01/17 08:54:25;;;;;;;5.30;3.95;;;;;;;4.38;100.00;97233.47;5037304;28;20033;-76
2024/01/17 08:56:51;;;;;;;6.72;4.22;;;;;;;4.41;100.00;97224.56;5035631;28;20034;-76
2024/01/17 08:59:16;;;;;;;6.13;4.47;;;;;;;4.44;100.00;97232.94;5036156;28;20038;-76
2024/01/17 09:01:42;;;;;;;5.55;4.32;;;;;;;4.47;100.00;97237.75;5035537;28;20041;-76
2024/01/17 09:04:07;;;;;;;4.95;3.55;;;;;;;4.51;100.00;97239.84;5035882;28;20040;-76
2024/01/17 09:06:33;;;;;;;6.45;4.80;;;;;;;4.54;100.00;97240.00;5037101;28;20060;-77
2024/01/17 09:08:59;;;;;;;6.32;4.70;;;;;;;4.56;100.00;97254.19;5003113;28;20044;-76
2024/01/17 09:11:25;;;;;;;6.95;4.80;;;;;;;4.58;100.00;97262.09;5018870;28;20029;-76
2024/01/17 09:13:50;;;;;;;6.47;4.97;;;;;;;4.60;100.00;97268.09;5036976;28;20029;-76
2024/01/17 09:16:16;;;;;;;6.78;5.30;;;;;;;4.66;100.00;97269.50;5019035;28;20033;-76
2024/01/17 09:18:42;;;;;;;11.65;8.55;;;;;;;4.68;100.00;97287.25;5035369;28;20029;-76
2024/01/17 09:21:08;;;;;;;12.38;8.95;;;;;;;4.68;100.00;97281.75;5018939;28;20406;-77
2024/01/17 09:23:33;;;;;;;9.90;7.38;;;;;;;4.66;100.00;97283.22;5035283;28;20546;-76
2024/01/17 09:25:59;;;;;;;10.98;8.13;;;;;;;4.68;100.00;97297.44;5035178;28;20033;-76
2024/01/17 09:28:24;;;;;;;12.43;8.73;;;;;;;4.66;100.00;97284.03;5035394;28;20060;-77
2024/01/17 09:30:50;;;;;;;10.93;7.75;;;;;;;4.64;100.00;97286.31;5036564;28;20041;-76
2024/01/17 09:33:16;;;;;;;17.20;11.68;;;;;;;4.64;100.00;97288.25;5018662;28;20032;-77
2024/01/17 09:35:44;;;;;;;12.10;8.93;;;;;;;4.61;100.00;97294.41;5035238;28;20033;-76
2024/01/17 09:38:12;;;;;;;11.63;8.38;;;;;;;4.59;100.00;97300.25;5036414;28;20034;-76
2024/01/17 09:40:39;;;;;;;11.02;7.30;;;;;;;4.58;100.00;97289.59;5036141;28;20033;-76
2024/01/17 09:43:06;;;;;;;11.50;8.07;;;;;;;4.54;100.00;97294.13;5041466;28;20120;-76
2024/01/17 09:45:32;;;;;;;12.52;8.52;;;;;;;4.50;100.00;97302.25;5020517;28;20029;-77
2024/01/17 09:47:58;;;;;;;10.35;7.78;;;;;;;4.47;100.00;97291.91;5018856;28;20508;-76
2024/01/17 09:50:23;;;;;;;9.85;7.30;;;;;;;4.45;100.00;97294.19;5018444;28;20025;-76
2024/01/17 09:52:49;;;;;;;10.13;6.88;;;;;;;4.42;100.00;97294.84;5044244;28;20112;-76
2024/01/17 09:55:18;;;;;;;11.02;7.18;;;;;;;4.38;100.00;97297.47;5018176;28;20040;-76
2024/01/17 09:57:53;;;;;;;9.10;6.60;;;;;;;4.36;100.00;97301.69;5018686;28;20029;-76
2024/01/17 10:00:19;;;;;;;8.75;6.45;;;;;;;4.35;100.00;97300.06;5035615;28;20060;-77
2024/01/17 10:02:44;;;;;;;7.53;5.93;;;;;;;4.34;100.00;97306.69;5034952;28;20033;-76
2024/01/17 10:05:11;;;;;;;7.68;5.60;;;;;;;4.32;100.00;97304.28;4998972;28;20601;-76
2024/01/17 10:07:37;;;;;;;7.60;6.00;;;;;;;4.33;100.00;97310.59;5011361;28;20464;-76
2024/01/17 10:10:03;;;;;;;8.07;5.53;;;;;;;4.34;100.00;97314.94;5034485;28;20026;-76
2024/01/17 10:12:28;;;;;;;7.05;5.70;;;;;;;4.34;100.00;97312.97;5036108;28;20148;-77
2024/01/17 10:14:54;;;;;;;7.85;6.00;;;;;;;4.33;100.00;97322.38;5034576;28;20393;-76
2024/01/17 10:17:19;;;;;;;8.27;6.63;;;;;;;4.37;100.00;97319.75;5035899;28;20021;-77
2024/01/17 10:19:45;;;;;;;7.90;6.25;;;;;;;4.33;100.00;97324.31;5033697;28;20084;-76
2024/01/17 10:22:10;;;;;;;7.22;6.20;;;;;;;4.33;100.00;97318.81;5032788;28;20701;-76
2024/01/17 10:24:37;;;;;;;8.88;6.38;;;;;;;4.36;100.00;97318.97;5030994;28;20029;-76
2024/01/17 10:27:09;;;;;;;7.72;5.63;;;;;;;4.34;100.00;97323.97;5030634;28;20060;-76
2024/01/17 10:29:37;;;;;;;7.93;5.80;;;;;;;4.36;100.00;97318.16;5032124;28;20033;-76
2024/01/17 10:32:02;;;;;;;7.85;6.30;;;;;;;4.37;100.00;97315.06;5030149;28;20044;-76
2024/01/17 10:34:29;;;;;;;6.95;6.07;;;;;;;4.39;100.00;97326.53;4996046;28;20038;-76
2024/01/17 10:36:54;;;;;;;7.65;5.68;;;;;;;4.40;100.00;97324.59;5031350;28;20079;-76
2024/01/17 10:39:20;;;;;;;7.95;6.22;;;;;;;4.44;100.00;97329.09;5022343;28;20037;-76
2024/01/17 10:41:54;;;;;;;8.25;6.18;;;;;;;4.47;100.00;97335.88;5016709;28;20060;-77
2024/01/17 10:44:20;;;;;;;7.50;5.30;;;;;;;4.48;100.00;97338.31;5016683;28;20075;-76
2024/01/17 10:46:50;;;;;;;6.88;5.45;;;;;;;4.50;100.00;97332.47;5016728;28;20049;-76
2024/01/17 10:49:17;;;;;;;6.45;5.25;;;;;;;4.55;100.00;97337.78;5032440;28;20065;-76
2024/01/17 10:51:52;;;;;;;6.45;5.03;;;;;;;4.58;100.00;97331.63;5016851;28;20044;-77
2024/01/17 10:54:17;;;;;;;6.03;4.95;;;;;;;4.57;100.00;97332.78;5012536;28;20093;-76
2024/01/17 10:56:45;;;;;;;6.00;4.45;;;;;;;4.63;100.00;97327.88;5014216;28;20393;-76
2024/01/17 10:59:11;;;;;;;6.50;4.35;;;;;;;4.64;100.00;97338.53;5012898;28;20398;-76
2024/01/17 11:01:37;;;;;;;6.28;4.80;;;;;;;4.69;100.00;97337.53;5030894;28;20037;-77
2024/01/17 11:04:34;;;;;;;5.75;4.50;;;;;;;4.72;100.00;97341.56;5046087;28;20030;-76
2024/01/17 11:07:00;;;;;;;4.90;4.40;;;;;;;4.74;100.00;97340.09;5036715;28;20042;-76
2024/01/17 11:09:26;;;;;;;6.25;4.47;;;;;;;4.78;100.00;97337.47;5031893;28;20036;-77
2024/01/17 11:11:51;;;;;;;5.38;4.05;;;;;;;4.82;100.00;97347.50;5031523;28;20037;-76
2024/01/17 11:14:17;;;;;;;5.43;4.47;;;;;;;4.84;100.00;97345.19;5031342;28;20030;-76
2024/01/17 11:16:46;;;;;;;4.65;4.00;;;;;;;4.89;100.00;97342.25;5030267;28;20029;-77
2024/01/17 11:19:12;;;;;;;4.90;3.90;;;;;;;4.91;100.00;97344.69;5015607;28;20033;-76
2024/01/17 11:21:37;;;;;;;6.38;4.10;;;;;;;4.95;100.00;97345.59;5039344;28;20061;-76
2024/01/17 11:24:08;;;;;;;5.32;3.80;;;;;;;4.98;100.00;97355.94;5050866;28;20041;-77